This is the latest recevied weather packets stored in our database for station/object OM5AMD-15. If no packets are shown the sender has not sent any weather packets the latest 10 day(s).
| Time | Temp. | Humidity | Pressure | Rain* | Wind** | Luminosity | Snow |
|---|---|---|---|---|---|---|---|
| 1777488031 | 11.67° C | 27% | 1027.6 hPa | 0 mm | - | - | - |
| 1777486849 | 12.22° C | 26% | 1027.6 hPa | 0 mm | - | - | - |
| 1777485632 | 12.78° C | 26% | 1026.7 hPa | 0 mm | - | - | - |
| 1777473643 | 18.33° C | 21% | 1025.6 hPa | 0 mm | - | - | - |
| 1777471249 | 18.89° C | 21% | 1025.6 hPa | 0 mm | - | - | - |
| 1777470640 | 18.33° C | 22% | 1025.6 hPa | 0 mm | - | - | - |
| 1777460419 | 17.22° C | 24% | 1026.6 hPa | 0 mm | - | - | - |
| 1777459219 | 18.33° C | 23% | 1027.6 hPa | 0 mm | - | - | - |
| 1777444837 | 12.22° C | 31% | 1028.6 hPa | 0 mm | - | - | - |
| 1777441825 | 10° C | 34% | 1028.6 hPa | 0 mm | - | - | - |
| 1777428025 | 7.78° C | 39% | 1026.6 hPa | 0 mm | - | - | - |
| 1777425619 | 8.89° C | 39% | 1026.6 hPa | 0 mm | - | - | - |
| 1777423237 | 9.44° C | 40% | 1026.6 hPa | 0 mm | - | - | - |
| 1777422643 | 10° C | 39% | 1026.6 hPa | 0 mm | - | - | - |
| 1777418423 | 10.56° C | 40% | 1025.6 hPa | 0 mm | - | - | - |
| 1777417248 | 11.11° C | 38% | 1025.6 hPa | 0 mm | - | - | - |
| 1777416648 | 11.11° C | 38% | 1025.6 hPa | 0 mm | - | - | - |
| 1777414820 | 11.67° C | 37% | 1025.6 hPa | 0 mm | - | - | - |
| 1777410621 | 12.78° C | 35% | 1024.6 hPa | 0 mm | - | - | - |
| 1777410032 | 13.33° C | 35% | 1024.6 hPa | 0 mm | - | - | - |
| 1777402818 | 16.11° C | 29% | 1023.5 hPa | 0 mm | - | - | - |
| 1777399831 | 17.78° C | 27% | 1022.5 hPa | 0 mm | - | - | - |
| 1777389626 | 20° C | 23% | 1022.5 hPa | 0 mm | - | - | - |
| 1777387825 | 20.56° C | 23% | 1022.5 hPa | 0 mm | - | - | - |
| 1777387232 | 21.11° C | 22% | 1022.5 hPa | 0 mm | - | - | - |
* Rain latest hour (hover to see other rain measurements)
** Current wind speed in m/s (hover to see current wind gust speed)